Time;durP1;ratioP1;P1;durP2;ratioP2;P2;SDS_P1;SDS_P2;PMS_P1;PMS_P2;Temp;Humidity;BMP_temperature;BMP_pressure;BME280_temperature;BME280_humidity;BME280_pressure;Samples;Min_cycle;Max_cycle;Signal;HPM_P1;HPM_P2
2023/02/25 00:01:50;;;;;;;8.83;6.70;;;1.90;99.90;2.20;95007.00;;;;5071821;28;20980;-89
2023/02/25 00:04:52;;;;;;;12.57;7.17;;;1.80;99.90;2.30;95008.00;;;;5071166;28;20430;-90
2023/02/25 00:07:41;;;;;;;11.33;8.30;;;2.60;99.90;3.00;95005.00;;;;5062250;28;20407;-88
2023/02/25 00:10:30;;;;;;;15.87;7.13;;;2.30;99.90;3.10;95009.00;;;;5059686;28;21170;-89
2023/02/25 00:13:18;;;;;;;12.50;7.37;;;1.80;99.90;3.20;94997.00;;;;5059300;28;20422;-89
2023/02/25 00:16:10;;;;;;;16.30;8.40;;;2.00;99.90;2.60;94993.00;;;;5070821;28;20940;-89
2023/02/25 00:18:59;;;;;;;15.80;7.50;;;2.80;99.90;2.70;94979.00;;;;5063424;28;20422;-88
2023/02/25 00:21:48;;;;;;;14.87;8.80;;;1.90;99.90;2.80;94984.00;;;;5057319;28;20469;-89
2023/02/25 00:24:37;;;;;;;8.13;6.27;;;4.40;99.90;2.50;94985.00;;;;5070550;28;20423;-89
2023/02/25 00:27:28;;;;;;;10.40;7.33;;;1.90;99.90;2.20;94975.00;;;;5075379;28;20512;-89
2023/02/25 00:30:17;;;;;;;15.27;7.10;;;1.80;99.90;2.00;94963.00;;;;5073383;28;20461;-88
2023/02/25 00:33:09;;;;;;;12.27;7.43;;;1.60;99.90;1.70;94964.00;;;;5073906;28;20827;-90
2023/02/25 00:36:00;;;;;;;15.87;8.27;;;2.80;99.90;1.90;94961.00;;;;5069900;28;20445;-90
2023/02/25 00:38:50;;;;;;;11.70;6.77;;;1.40;99.90;2.30;94968.00;;;;5070360;28;20488;-90
2023/02/25 00:41:39;;;;;;;12.67;6.13;;;1.40;99.90;2.40;94975.00;;;;5069795;28;20520;-89
2023/02/25 00:44:27;;;;;;;12.83;6.57;;;1.50;99.90;2.50;94959.00;;;;5068169;28;20423;-89
2023/02/25 00:47:19;;;;;;;13.03;7.47;;;1.50;99.90;2.70;94946.00;;;;5069095;28;20441;-89
2023/02/25 00:50:13;;;;;;;12.83;7.90;;;1.60;99.90;3.10;94931.00;;;;5067523;28;20957;-90
2023/02/25 00:53:01;;;;;;;9.77;6.67;;;1.70;99.90;3.00;94920.00;;;;5069997;28;20422;-89
2023/02/25 00:55:59;;;;;;;10.10;6.27;;;3.10;99.90;3.00;94924.00;;;;5050243;28;20431;-90
2023/02/25 00:58:51;;;;;;;10.90;6.73;;;1.90;99.90;2.80;94924.00;;;;5056290;28;20431;-90
2023/02/25 01:01:40;;;;;;;12.13;7.43;;;2.50;99.90;3.00;94905.00;;;;5066529;28;20450;-89
2023/02/25 01:04:29;;;;;;;11.47;6.97;;;2.80;99.90;3.20;94893.00;;;;5068987;28;20425;-89
2023/02/25 01:07:20;;;;;;;14.03;7.80;;;1.90;99.90;2.80;94894.00;;;;5059053;28;20956;-89
2023/02/25 01:10:11;;;;;;;10.83;6.37;;;3.50;99.90;2.90;94895.00;;;;5065106;28;20438;-89
2023/02/25 01:13:00;;;;;;;14.80;7.03;;;1.90;99.90;2.80;94892.00;;;;5049550;28;20458;-89
2023/02/25 01:15:48;;;;;;;11.77;6.30;;;1.90;99.90;2.40;94883.00;;;;5057151;28;20434;-89
2023/02/25 01:18:39;;;;;;;10.17;7.37;;;1.80;99.90;2.40;94880.00;;;;5069730;28;20837;-89
2023/02/25 01:21:31;;;;;;;8.17;6.10;;;1.80;99.90;1.80;94882.00;;;;5064009;28;21023;-89
2023/02/25 01:24:24;;;;;;;12.60;7.33;;;1.60;99.90;1.80;94866.00;;;;5070215;28;20968;-90
2023/02/25 01:27:12;;;;;;;10.27;5.67;;;1.50;99.90;1.70;94879.00;;;;5063655;28;20431;-89
2023/02/25 01:30:02;;;;;;;8.67;5.87;;;1.40;99.90;1.60;94882.00;;;;5069469;28;20443;-89
2023/02/25 01:32:51;;;;;;;13.20;7.17;;;1.30;99.90;2.00;94885.00;;;;5062927;28;20513;-89
2023/02/25 01:35:40;;;;;;;14.57;6.30;;;2.40;99.90;2.20;94867.00;;;;5059084;28;20426;-89
2023/02/25 01:38:29;;;;;;;11.50;6.90;;;1.40;99.90;2.50;94861.00;;;;5069219;28;20418;-89
2023/02/25 01:41:19;;;;;;;15.10;7.93;;;2.20;99.90;2.80;94850.00;;;;5067851;28;20477;-88
2023/02/25 01:44:13;;;;;;;11.23;6.70;;;1.60;99.90;2.70;94841.00;;;;5072223;28;20422;-89
2023/02/25 01:47:02;;;;;;;15.60;7.83;;;1.60;99.90;2.70;94857.00;;;;5065596;28;20419;-89
2023/02/25 01:49:51;;;;;;;10.67;6.73;;;2.70;99.90;2.50;94844.00;;;;5069582;28;20443;-89
2023/02/25 01:52:43;;;;;;;10.40;6.23;;;1.60;99.90;2.10;94844.00;;;;5075556;28;20421;-89
2023/02/25 01:55:33;;;;;;;10.27;6.93;;;1.60;99.90;2.20;94855.00;;;;5057496;28;20420;-90
2023/02/25 01:58:23;;;;;;;10.17;5.80;;;1.60;99.90;2.00;94846.00;;;;5067789;28;20507;-91
2023/02/25 02:01:19;;;;;;;11.57;7.53;;;1.50;99.90;1.70;94859.00;;;;5073040;28;20435;-90
2023/02/25 02:04:12;;;;;;;9.13;6.60;;;1.90;99.90;2.30;94852.00;;;;5073335;28;20445;-89
2023/02/25 02:07:01;;;;;;;11.27;7.47;;;1.40;99.90;2.40;94841.00;;;;5052681;28;20411;-89
2023/02/25 02:09:55;;;;;;;11.43;7.87;;;2.40;99.90;2.00;94837.00;;;;5054643;28;20529;-89
2023/02/25 02:12:47;;;;;;;15.73;8.23;;;1.40;99.90;2.70;94837.00;;;;5068505;28;21003;-89
2023/02/25 02:15:45;;;;;;;17.43;7.63;;;1.40;99.90;2.90;94845.00;;;;5059645;28;20496;-90
2023/02/25 02:18:36;;;;;;;14.80;7.77;;;1.90;99.90;3.00;94843.00;;;;5068076;28;20426;-90
2023/02/25 02:21:53;;;;;;;10.90;7.03;;;2.30;99.90;2.40;94829.00;;;;5067679;28;20937;-89
2023/02/25 02:25:51;;;;;;;13.70;6.67;;;1.70;99.90;2.80;94833.00;;;;5068576;28;20422;-89
2023/02/25 02:29:20;;;;;;;11.57;7.70;;;1.70;99.90;2.50;94836.00;;;;5067394;28;20836;-89
2023/02/25 02:32:17;;;;;;;12.53;7.07;;;3.00;99.90;2.00;94840.00;;;;5061923;28;20423;-91
2023/02/25 02:35:19;;;;;;;9.27;5.73;;;1.90;99.90;2.40;94841.00;;;;5066146;28;20430;-90
2023/02/25 02:38:15;;;;;;;15.87;7.27;;;1.50;99.90;2.70;94842.00;;;;5065781;28;21027;-90
2023/02/25 02:41:14;;;;;;;9.77;6.93;;;2.30;99.90;2.90;94861.00;;;;5068769;28;20539;-89
2023/02/25 02:44:12;;;;;;;14.60;7.70;;;1.60;99.90;2.50;94851.00;;;;5065283;28;20481;-90
2023/02/25 02:47:06;;;;;;;11.53;8.10;;;1.70;99.90;2.40;94846.00;;;;5059260;28;20510;-90
2023/02/25 02:50:03;;;;;;;10.73;7.07;;;3.00;99.90;2.50;94851.00;;;;5068763;28;20442;-90
2023/02/25 02:52:57;;;;;;;12.10;7.70;;;1.90;99.90;2.80;94843.00;;;;5065143;28;20434;-90
2023/02/25 02:55:50;;;;;;;9.97;6.50;;;1.60;99.90;2.70;94859.00;;;;5066981;28;20422;-90
2023/02/25 02:58:44;;;;;;;9.80;6.60;;;1.60;99.90;2.70;94865.00;;;;5071581;28;20442;-90
2023/02/25 03:01:38;;;;;;;14.37;7.53;;;1.70;99.90;2.70;94867.00;;;;5072698;28;20442;-89
2023/02/25 03:04:33;;;;;;;12.13;7.07;;;2.70;99.90;2.20;94870.00;;;;5073498;28;20511;-87
2023/02/25 03:07:24;;;;;;;12.63;7.77;;;1.50;99.90;2.20;94881.00;;;;5063319;28;20415;-91
2023/02/25 03:10:17;;;;;;;15.20;8.37;;;1.80;99.90;2.00;94866.00;;;;5073203;28;20445;-87
2023/02/25 03:13:05;;;;;;;14.33;6.93;;;1.50;99.90;2.70;94879.00;;;;5070959;28;20949;-88
2023/02/25 03:15:55;;;;;;;11.03;6.87;;;1.70;99.90;2.60;94881.00;;;;5071897;28;20772;-88
2023/02/25 03:18:50;;;;;;;9.40;4.23;;;1.60;99.90;1.90;94885.00;;;;5068830;28;20423;-90
2023/02/25 03:21:43;;;;;;;13.43;7.77;;;1.60;99.90;2.10;94886.00;;;;5071242;28;20596;-86
2023/02/25 03:24:41;;;;;;;11.77;6.17;;;1.60;99.90;2.50;94912.00;;;;5071212;28;20958;-88
2023/02/25 03:27:37;;;;;;;10.17;5.83;;;1.90;99.90;2.30;94917.00;;;;5072506;28;20425;-88
2023/02/25 03:30:33;;;;;;;11.90;7.30;;;2.80;99.90;2.30;94904.00;;;;5072123;28;20435;-89
2023/02/25 03:33:31;;;;;;;12.93;6.57;;;2.50;99.90;2.80;94916.00;;;;5080838;28;20449;-89
2023/02/25 03:36:25;;;;;;;13.00;7.33;;;1.80;99.90;2.80;94900.00;;;;5067749;28;21007;-89
2023/02/25 03:39:18;;;;;;;15.43;6.70;;;2.40;99.90;3.20;94911.00;;;;5080657;28;20434;-89
2023/02/25 03:42:14;;;;;;;8.50;4.83;;;3.10;99.90;2.50;94912.00;;;;5080474;28;20940;-87
2023/02/25 03:45:06;;;;;;;8.13;4.87;;;2.20;99.90;2.90;94920.00;;;;5071753;28;20418;-88
2023/02/25 03:47:55;;;;;;;16.00;8.57;;;2.10;99.90;3.50;94924.00;;;;5064075;28;20442;-88
2023/02/25 03:50:50;;;;;;;16.03;7.67;;;2.30;99.90;4.30;94927.00;;;;5062302;28;20446;-88
2023/02/25 03:53:38;;;;;;;10.43;5.73;;;2.90;99.90;4.50;94922.00;;;;5068539;28;20441;-87
2023/02/25 03:56:28;;;;;;;13.73;6.33;;;2.90;99.90;4.90;94937.00;;;;5062441;28;20921;-88
2023/02/25 03:59:22;;;;;;;13.30;6.40;;;3.90;99.90;4.90;94939.00;;;;5067192;28;20419;-89
2023/02/25 04:02:12;;;;;;;9.53;5.70;;;3.50;99.90;4.90;94938.00;;;;5065389;28;21287;-89
2023/02/25 04:05:01;;;;;;;6.47;4.40;;;3.70;99.90;5.40;94956.00;;;;5068856;28;20447;-88
2023/02/25 04:07:50;;;;;;;10.80;5.40;;;3.80;99.90;5.30;94963.00;;;;5066910;28;20819;-89
2023/02/25 04:10:42;;;;;;;11.93;6.13;;;5.50;99.90;5.60;94961.00;;;;5072028;28;21097;-88
2023/02/25 04:13:31;;;;;;;9.10;5.07;;;4.50;99.90;5.90;94949.00;;;;5053050;28;20446;-90
2023/02/25 04:16:21;;;;;;;5.43;3.07;;;4.20;99.90;6.20;94951.00;;;;5064027;28;20581;-89
2023/02/25 04:19:10;;;;;;;1.10;1.00;;;4.40;99.90;6.80;94946.00;;;;5068534;28;20207;-88
2023/02/25 04:22:00;;;;;;;1.97;0.80;;;5.20;99.90;7.20;94918.00;;;;5066033;28;20199;-89
2023/02/25 04:24:49;;;;;;;1.23;1.13;;;5.00;99.90;7.30;94953.00;;;;5069306;28;20274;-88
2023/02/25 04:27:38;;;;;;;0.53;0.53;;;5.40;99.90;7.40;94965.00;;;;5064433;28;20223;-88
2023/02/25 04:30:27;;;;;;;0.50;0.50;;;5.60;99.90;7.80;94973.00;;;;5072917;28;20307;-87
2023/02/25 04:33:17;;;;;;;5.23;4.60;;;5.90;99.90;7.80;94978.00;;;;5067765;28;20678;-87
2023/02/25 04:36:23;;;;;;;2.67;2.03;;;6.10;99.90;8.00;95009.00;;;;5069551;28;20570;-87
2023/02/25 04:39:13;;;;;;;0.90;0.70;;;6.30;99.90;8.00;95012.00;;;;5071745;28;20203;-88
2023/02/25 04:42:02;;;;;;;0.50;0.50;;;6.40;99.90;8.20;95029.00;;;;5073446;28;21868;-87
2023/02/25 04:44:51;;;;;;;1.13;0.50;;;6.60;99.90;8.20;95043.00;;;;5069359;28;20311;-89
2023/02/25 04:47:40;;;;;;;0.73;0.50;;;6.70;99.90;8.30;95059.00;;;;5060319;28;20292;-88
2023/02/25 04:50:30;;;;;;;0.40;0.40;;;6.70;99.90;7.80;95068.00;;;;5067857;28;20292;-88
2023/02/25 04:53:19;;;;;;;1.90;0.60;;;6.70;99.90;8.20;95084.00;;;;5066494;28;20211;-89
2023/02/25 04:56:09;;;;;;;0.40;0.40;;;6.80;99.90;8.10;95083.00;;;;5066148;28;20204;-88
2023/02/25 04:58:58;;;;;;;0.40;0.30;;;6.80;99.90;7.30;95074.00;;;;5067222;28;20269;-85
2023/02/25 05:01:47;;;;;;;0.40;0.40;;;6.70;99.90;8.00;95089.00;;;;5068632;28;20188;-88
2023/02/25 05:04:37;;;;;;;0.47;0.30;;;6.70;99.90;7.60;95069.00;;;;5066709;28;20216;-87
2023/02/25 05:07:27;;;;;;;1.00;0.63;;;6.70;99.90;7.80;95088.00;;;;5070197;28;20218;-90
2023/02/25 05:10:16;;;;;;;0.60;0.50;;;6.60;99.90;7.40;95103.00;;;;5069478;28;20309;-89
2023/02/25 05:13:05;;;;;;;0.50;0.30;;;6.60;99.90;7.30;95104.00;;;;5060155;28;20215;-89
2023/02/25 05:16:04;;;;;;;0.30;0.30;;;6.50;99.90;7.20;95113.00;;;;5068733;28;20195;-90
2023/02/25 05:18:53;;;;;;;0.63;0.63;;;6.40;99.90;7.50;95091.00;;;;5060498;28;20203;-89
2023/02/25 05:21:42;;;;;;;0.50;0.50;;;6.40;99.90;7.60;95115.00;;;;5065362;28;20220;-89
2023/02/25 05:24:33;;;;;;;0.40;0.40;;;6.30;99.90;7.30;95116.00;;;;5067905;28;20211;-88
2023/02/25 05:27:22;;;;;;;0.77;0.33;;;6.50;99.90;6.80;95115.00;;;;5069320;28;20203;-89
2023/02/25 05:30:13;;;;;;;0.40;0.40;;;6.20;99.90;6.70;95109.00;;;;5066944;28;20252;-90
2023/02/25 05:33:01;;;;;;;0.60;0.40;;;6.10;99.90;7.30;95125.00;;;;5065787;28;20303;-89
2023/02/25 05:35:50;;;;;;;0.60;0.60;;;6.10;99.90;7.20;95120.00;;;;5065912;28;20208;-89
2023/02/25 05:43:01;;;;;;;0.73;0.33;;;6.10;99.90;7.20;95124.00;;;;5065638;28;20203;-87
2023/02/25 05:45:54;;;;;;;0.97;0.50;;;6.00;99.90;7.40;95118.00;;;;5076404;28;20309;-88
2023/02/25 05:48:45;;;;;;;10.27;5.67;;;6.00;99.90;7.30;95138.00;;;;5064071;28;20199;-87
2023/02/25 05:51:34;;;;;;;24.17;12.40;;;6.00;99.90;7.30;95129.00;;;;5068932;28;20220;-87
2023/02/25 05:54:22;;;;;;;2.83;2.10;;;6.00;99.90;7.20;95124.00;;;;5067879;28;20239;-88
2023/02/25 05:57:11;;;;;;;1.80;1.47;;;5.90;99.90;7.20;95138.00;;;;5055839;28;20192;-88
2023/02/25 06:00:07;;;;;;;6.87;4.07;;;5.90;99.90;7.30;95146.00;;;;5067627;28;20251;-88
2023/02/25 06:02:56;;;;;;;6.40;3.77;;;5.90;99.90;7.40;95136.00;;;;5070593;28;20203;-88
2023/02/25 06:05:45;;;;;;;2.60;1.93;;;5.90;99.90;7.30;95130.00;;;;5065280;28;20594;-89
2023/02/25 06:08:35;;;;;;;0.40;0.40;;;5.90;99.90;7.10;95148.00;;;;5059138;28;20203;-89
2023/02/25 06:11:27;;;;;;;0.77;0.73;;;5.90;99.90;7.10;95180.00;;;;5069144;28;20215;-88
2023/02/25 06:14:16;;;;;;;0.50;0.50;;;6.20;99.90;7.10;95164.00;;;;5068456;28;20282;-88
2023/02/25 06:17:06;;;;;;;0.43;0.27;;;5.90;99.90;6.80;95166.00;;;;5051393;28;20207;-88
2023/02/25 06:19:56;;;;;;;1.00;0.50;;;5.90;99.90;7.30;95156.00;;;;5055871;28;20262;-87
2023/02/25 06:22:44;;;;;;;0.40;0.40;;;5.90;99.90;7.20;95151.00;;;;5067206;28;20203;-87
2023/02/25 06:25:33;;;;;;;4.47;0.80;;;6.10;99.90;7.50;95172.00;;;;5070625;28;20215;-87
2023/02/25 06:28:22;;;;;;;0.50;0.50;;;6.20;99.90;7.40;95168.00;;;;5072066;28;20196;-87
2023/02/25 06:31:17;;;;;;;0.83;0.47;;;6.00;99.90;7.50;95172.00;;;;5069843;28;20701;-87
2023/02/25 06:34:07;;;;;;;0.53;0.40;;;6.10;99.90;7.60;95169.00;;;;5070341;28;20226;-87
2023/02/25 06:36:55;;;;;;;0.30;0.30;;;6.10;99.90;7.60;95172.00;;;;5066221;28;20666;-87
2023/02/25 06:39:44;;;;;;;0.37;0.30;;;6.10;99.90;7.60;95161.00;;;;5065242;28;20695;-88
2023/02/25 06:42:33;;;;;;;27.57;9.30;;;6.10;99.90;7.50;95167.00;;;;5070398;28;20670;-87
2023/02/25 06:45:22;;;;;;;33.13;12.37;;;6.10;99.90;7.50;95171.00;;;;5069152;28;20596;-87
2023/02/25 06:48:11;;;;;;;1.47;1.17;;;6.10;99.90;7.50;95162.00;;;;5064314;28;20193;-87
2023/02/25 06:51:03;;;;;;;6.03;3.67;;;6.10;99.90;7.50;95162.00;;;;5060201;28;20631;-87
2023/02/25 06:53:52;;;;;;;9.77;5.03;;;6.10;99.90;7.40;95170.00;;;;5071138;28;20211;-87
2023/02/25 06:56:41;;;;;;;6.77;2.90;;;6.10;99.90;7.40;95176.00;;;;5065886;28;20219;-87
2023/02/25 06:59:30;;;;;;;15.17;8.30;;;6.00;99.90;7.50;95171.00;;;;5069075;28;20208;-88
2023/02/25 07:02:19;;;;;;;4.63;3.20;;;6.00;99.90;7.50;95154.00;;;;5066937;28;20211;-87
2023/02/25 07:05:09;;;;;;;0.83;0.57;;;6.00;99.90;7.50;95130.00;;;;5067572;28;20602;-86
2023/02/25 07:07:59;;;;;;;2.50;0.90;;;6.10;99.90;7.60;95156.00;;;;5077050;28;20215;-85
2023/02/25 07:10:48;;;;;;;0.47;0.47;;;6.10;99.90;7.60;95147.00;;;;5062324;28;20269;-86
2023/02/25 07:13:37;;;;;;;0.33;0.33;;;6.20;99.90;7.70;95162.00;;;;5066568;28;20212;-85
2023/02/25 07:16:28;;;;;;;0.30;0.30;;;6.20;99.90;8.00;95176.00;;;;5069412;28;20207;-88
2023/02/25 07:19:17;;;;;;;0.30;0.30;;;6.30;99.90;8.00;95196.00;;;;5070029;28;20204;-86
2023/02/25 07:22:08;;;;;;;0.30;0.30;;;6.40;99.90;8.10;95177.00;;;;5068661;28;20219;-85
2023/02/25 07:24:59;;;;;;;0.80;0.30;;;6.40;99.90;8.10;95165.00;;;;5061911;28;20694;-87
2023/02/25 07:27:48;;;;;;;0.33;0.27;;;6.50;99.90;8.20;95147.00;;;;5069032;28;20207;-87
2023/02/25 07:30:37;;;;;;;0.40;0.40;;;6.50;99.90;8.30;95151.00;;;;5057754;28;20635;-86
2023/02/25 07:33:26;;;;;;;0.50;0.50;;;6.60;99.90;8.20;95166.00;;;;5066650;28;20221;-86
2023/02/25 07:36:16;;;;;;;1.90;0.40;;;6.60;99.90;8.40;95169.00;;;;5067830;28;20200;-86
2023/02/25 07:39:07;;;;;;;0.90;0.70;;;6.80;99.90;8.70;95142.00;;;;5068281;28;20554;-87
2023/02/25 07:41:57;;;;;;;1.10;0.70;;;6.80;99.90;8.60;95155.00;;;;5067124;28;20204;-87
2023/02/25 07:44:46;;;;;;;1.47;0.50;;;6.90;99.90;8.70;95165.00;;;;5063693;28;20687;-86
2023/02/25 07:47:35;;;;;;;0.30;0.30;;;7.00;99.90;8.90;95156.00;;;;5064834;28;20216;-87
2023/02/25 07:50:24;;;;;;;0.23;0.20;;;7.10;99.90;8.70;95146.00;;;;5068298;28;20227;-88
2023/02/25 07:53:17;;;;;;;0.50;0.30;;;7.10;99.50;8.90;95176.00;;;;5063726;28;20304;-88
2023/02/25 07:56:09;;;;;;;0.40;0.30;;;6.30;98.60;8.80;95169.00;;;;5063153;28;20721;-88
2023/02/25 07:59:02;;;;;;;5.40;0.57;;;7.30;98.10;8.90;95154.00;;;;5058714;28;20261;-89
2023/02/25 08:01:51;;;;;;;0.90;0.63;;;7.30;98.20;9.10;95164.00;;;;5066086;28;20249;-86
2023/02/25 08:04:40;;;;;;;0.30;0.30;;;7.40;96.80;8.70;95154.00;;;;5066703;28;20200;-88
2023/02/25 08:07:30;;;;;;;0.20;0.20;;;7.50;94.80;9.00;95146.00;;;;5068203;28;20303;-88
2023/02/25 08:10:19;;;;;;;2.63;1.43;;;7.50;92.40;9.50;95152.00;;;;5067513;28;20220;-88
2023/02/25 08:13:08;;;;;;;1.93;1.33;;;7.70;95.00;9.60;95177.00;;;;5062903;28;20257;-88
2023/02/25 08:15:59;;;;;;;1.20;1.10;;;7.80;94.30;9.80;95173.00;;;;5068085;28;20211;-88
2023/02/25 08:18:48;;;;;;;0.80;0.80;;;7.90;94.40;9.60;95174.00;;;;5068693;28;20200;-87
2023/02/25 08:21:39;;;;;;;0.73;0.50;;;8.00;91.40;9.90;95167.00;;;;5067657;28;20228;-87
2023/02/25 08:24:28;;;;;;;0.57;0.30;;;8.10;92.10;9.80;95190.00;;;;5063598;28;20303;-87
2023/02/25 08:27:17;;;;;;;0.30;0.30;;;8.10;90.10;9.80;95187.00;;;;5069079;28;20211;-88
2023/02/25 08:30:07;;;;;;;0.40;0.20;;;8.20;90.30;9.60;95182.00;;;;5066301;28;20220;-88
2023/02/25 08:32:58;;;;;;;0.30;0.30;;;8.20;86.20;9.90;95186.00;;;;5066065;28;20243;-86
2023/02/25 08:35:47;;;;;;;3.70;0.40;;;8.30;84.70;9.80;95194.00;;;;5066983;28;20200;-86
2023/02/25 08:38:36;;;;;;;0.30;0.30;;;8.40;84.20;9.60;95208.00;;;;5069112;28;20200;-87
2023/02/25 08:41:27;;;;;;;0.20;0.20;;;8.40;82.30;9.70;95202.00;;;;5068516;28;20227;-88
2023/02/25 08:44:18;;;;;;;0.40;0.30;;;8.40;82.20;9.60;95195.00;;;;5058309;28;20239;-88
2023/02/25 08:47:09;;;;;;;3.33;1.07;;;8.50;83.50;10.10;95198.00;;;;5060547;28;20201;-88
2023/02/25 08:49:59;;;;;;;0.57;0.30;;;8.50;82.70;10.40;95189.00;;;;5067588;28;20228;-88
2023/02/25 08:52:49;;;;;;;0.40;0.30;;;8.70;82.50;10.50;95181.00;;;;5062560;28;20208;-89
2023/02/25 08:55:39;;;;;;;0.20;0.20;;;8.80;82.70;10.70;95187.00;;;;5063703;28;20219;-87
2023/02/25 08:58:31;;;;;;;0.20;0.20;;;9.00;82.00;11.00;95194.00;;;;5064319;28;21053;-88
2023/02/25 09:01:20;;;;;;;0.40;0.40;;;9.10;80.10;11.40;95196.00;;;;5066390;28;20261;-89
2023/02/25 09:04:10;;;;;;;0.30;0.30;;;9.30;81.10;11.00;95186.00;;;;5071624;28;20208;-86
2023/02/25 09:07:04;;;;;;;3.90;1.20;;;9.40;77.60;11.60;95198.00;;;;5069022;28;20223;-88
2023/02/25 09:09:53;;;;;;;1.10;0.80;;;9.60;80.20;11.80;95191.00;;;;5073869;28;20237;-89
2023/02/25 09:12:43;;;;;;;1.43;0.60;;;9.80;79.70;11.20;95179.00;;;;5065889;28;20663;-88
2023/02/25 09:15:32;;;;;;;0.40;0.40;;;9.90;76.30;11.40;95184.00;;;;5066532;28;20202;-88
2023/02/25 09:18:21;;;;;;;1.13;0.40;;;9.80;75.80;11.40;95190.00;;;;5063946;28;20192;-85
2023/02/25 09:21:12;;;;;;;1.03;0.30;;;9.90;76.10;11.70;95179.00;;;;5064098;28;20220;-86
2023/02/25 09:24:02;;;;;;;0.27;0.27;;;10.00;75.20;11.20;95190.00;;;;5064411;28;20219;-87
2023/02/25 09:26:52;;;;;;;0.47;0.30;;;10.00;73.10;12.00;95178.00;;;;5065567;28;20231;-87
2023/02/25 09:29:41;;;;;;;0.30;0.30;;;10.10;73.80;12.10;95166.00;;;;5065091;28;20223;-88
2023/02/25 09:36:27;;;;;;;0.53;0.33;;;10.70;72.70;12.70;95180.00;;;;5067325;28;20201;-88
2023/02/25 09:42:48;;;;;;;0.37;0.30;;;11.00;71.20;12.70;95170.00;;;;5027513;28;20224;-64
2023/02/25 09:45:37;;;;;;;0.40;0.20;;;11.00;69.30;12.70;95166.00;;;;5016185;28;20315;-66
2023/02/25 09:48:32;;;;;;;0.20;0.20;;;11.20;68.30;12.90;95188.00;;;;5024049;28;20209;-67
2023/02/25 09:51:27;;;;;;;0.20;0.20;;;11.20;67.10;13.30;95171.00;;;;5022926;28;20689;-66
2023/02/25 09:54:23;;;;;;;0.30;0.30;;;11.40;67.80;13.80;95182.00;;;;5017802;28;20220;-64
2023/02/25 09:57:17;;;;;;;0.40;0.30;;;11.60;67.00;13.80;95196.00;;;;5042404;28;20224;-65
2023/02/25 10:00:18;;;;;;;0.20;0.20;;;11.80;65.50;13.90;95185.00;;;;5046785;28;20548;-66
2023/02/25 10:03:17;;;;;;;0.40;0.30;;;12.00;62.90;13.30;95164.00;;;;5044647;28;20212;-64
2023/02/25 10:06:15;;;;;;;0.47;0.33;;;12.10;61.50;13.70;95177.00;;;;5040981;28;20228;-65
2023/02/25 10:09:15;;;;;;;0.30;0.30;;;12.10;61.90;13.70;95168.00;;;;5044328;28;20219;-66
2023/02/25 10:12:14;;;;;;;0.43;0.30;;;12.30;60.00;12.70;95145.00;;;;5045096;28;20201;-64
2023/02/25 10:15:32;;;;;;;0.20;0.20;;;12.00;60.20;13.20;95133.00;;;;5040306;28;20262;-65
2023/02/25 10:18:37;;;;;;;0.40;0.20;;;12.00;59.10;13.90;95136.00;;;;5041936;28;20209;-63
2023/02/25 10:21:45;;;;;;;0.30;0.23;;;12.10;59.90;13.80;95147.00;;;;5041157;28;20201;-64
2023/02/25 10:24:40;;;;;;;0.20;0.20;;;12.30;58.70;13.80;95159.00;;;;5040520;28;20224;-71
2023/02/25 10:27:32;;;;;;;0.40;0.30;;;12.10;58.50;14.10;95131.00;;;;5041966;28;20225;-64
2023/02/25 10:30:31;;;;;;;0.77;0.40;;;12.60;57.50;13.80;95149.00;;;;5052342;28;20215;-62
2023/02/25 10:33:24;;;;;;;0.37;0.37;;;12.70;56.10;14.30;95158.00;;;;5039514;28;20209;-64
2023/02/25 10:36:20;;;;;;;1.03;0.30;;;12.70;56.70;15.10;95148.00;;;;5042939;28;20712;-64
2023/02/25 10:39:13;;;;;;;0.30;0.27;;;13.00;56.40;15.10;95149.00;;;;5043228;28;20216;-64
2023/02/25 10:42:03;;;;;;;0.20;0.20;;;13.20;55.70;14.70;95148.00;;;;5040174;28;20580;-66
2023/02/25 10:44:55;;;;;;;0.20;0.20;;;13.40;54.60;15.20;95157.00;;;;5042768;28;20724;-65
2023/02/25 10:47:51;;;;;;;0.20;0.20;;;13.50;54.80;16.50;95164.00;;;;5039331;28;20246;-65
2023/02/25 10:50:40;;;;;;;1.70;0.40;;;13.90;55.60;15.40;95165.00;;;;5041142;28;20224;-65
2023/02/25 10:53:34;;;;;;;0.20;0.20;;;14.00;52.70;17.20;95168.00;;;;5041608;28;20742;-65
2023/02/25 10:56:25;;;;;;;0.40;0.40;;;14.90;53.00;16.50;95166.00;;;;5040732;28;20181;-67
2023/02/25 10:59:28;;;;;;;0.20;0.20;;;15.00;52.30;16.20;95135.00;;;;5038977;28;20204;-64
2023/02/25 11:02:26;;;;;;;0.20;0.20;;;15.10;52.20;17.30;95149.00;;;;5041253;28;20197;-65
2023/02/25 11:05:37;;;;;;;0.30;0.20;;;15.50;52.80;16.30;95164.00;;;;5041107;28;20213;-65
2023/02/25 11:08:29;;;;;;;0.27;0.27;;;15.50;50.00;17.10;95131.00;;;;5038952;28;20202;-70
2023/02/25 11:11:22;;;;;;;1.60;0.43;;;15.60;50.20;17.50;95146.00;;;;5037736;28;20790;-68
2023/02/25 11:14:16;;;;;;;0.20;0.13;;;15.60;50.00;19.00;95160.00;;;;5039324;28;20705;-67
2023/02/25 11:17:07;;;;;;;0.40;0.20;;;16.10;50.90;18.60;95157.00;;;;5042026;28;20673;-65
2023/02/25 11:20:00;;;;;;;0.63;0.20;;;16.40;49.70;17.70;95151.00;;;;5040169;28;20213;-67
2023/02/25 11:22:53;;;;;;;5.53;0.30;;;16.60;47.60;19.10;95135.00;;;;5043422;28;20205;-66
2023/02/25 11:25:43;;;;;;;0.20;0.10;;;16.80;49.30;18.10;95143.00;;;;5055286;28;20752;-65
2023/02/25 11:28:38;;;;;;;0.30;0.20;;;16.50;48.30;17.50;95131.00;;;;5040052;28;20216;-66
2023/02/25 11:31:34;;;;;;;1.63;0.40;;;16.60;47.40;16.80;95138.00;;;;5048461;28;20201;-66
2023/02/25 11:34:25;;;;;;;0.40;0.30;;;16.80;47.10;18.10;95141.00;;;;5041364;28;20224;-65
2023/02/25 11:37:36;;;;;;;0.30;0.27;;;16.50;48.00;15.90;95112.00;;;;5044409;28;20424;-67
2023/02/25 11:40:30;;;;;;;0.20;0.20;;;16.40;46.80;18.10;95122.00;;;;5043704;28;20226;-69
2023/02/25 11:43:21;;;;;;;0.40;0.20;;;16.40;48.60;18.30;95121.00;;;;5044006;28;20684;-65
2023/02/25 11:46:18;;;;;;;0.20;0.17;;;16.60;47.80;18.60;95118.00;;;;5045972;28;20201;-65
2023/02/25 11:49:20;;;;;;;0.77;0.20;;;17.00;47.00;18.60;95112.00;;;;5038094;28;20262;-66
2023/02/25 11:52:18;;;;;;;0.70;0.20;;;17.00;46.90;18.60;95092.00;;;;5043458;28;20687;-68
2023/02/25 11:55:21;;;;;;;1.50;0.40;;;17.30;46.80;18.90;95098.00;;;;5041521;28;20260;-66
2023/02/25 11:58:28;;;;;;;0.20;0.10;;;17.20;46.90;17.00;95089.00;;;;5042039;28;20596;-66
2023/02/25 12:01:35;;;;;;;1.00;0.37;;;17.00;45.70;17.90;95072.00;;;;5043878;28;20208;-65
2023/02/25 12:05:11;;;;;;;0.20;0.10;;;16.80;46.70;18.20;95090.00;;;;5042918;28;20278;-64
2023/02/25 12:08:31;;;;;;;0.77;0.20;;;16.80;45.70;19.50;95099.00;;;;5036098;28;20213;-65
2023/02/25 12:12:11;;;;;;;0.57;0.20;;;17.20;46.40;18.10;95081.00;;;;5042274;28;20210;-66
2023/02/25 12:15:27;;;;;;;0.20;0.10;;;17.00;45.80;16.00;95077.00;;;;5038877;28;20244;-69
2023/02/25 12:19:04;;;;;;;0.57;0.57;;;16.30;45.50;18.30;95073.00;;;;5043395;28;20236;-65
2023/02/25 12:22:52;;;;;;;0.60;0.20;;;16.40;46.70;19.80;95084.00;;;;5033809;28;20282;-65
2023/02/25 12:25:49;;;;;;;0.40;0.30;;;16.90;47.00;19.90;95081.00;;;;5041435;28;20620;-66
2023/02/25 12:29:08;;;;;;;1.47;0.20;;;;;19.60;95073.00;;;;5043957;28;20676;-66
2023/02/25 12:32:22;;;;;;;0.30;0.20;;;;;17.70;95079.00;;;;5035156;28;20714;-71
2023/02/25 12:35:43;;;;;;;0.27;0.20;;;;;17.70;95076.00;;;;5040368;28;20228;-65
2023/02/25 12:39:10;;;;;;;0.20;0.20;;;;;18.00;95062.00;;;;5044669;28;20271;-66
2023/02/25 12:42:07;;;;;;;0.23;0.23;;;;;17.90;95046.00;;;;5041513;28;20213;-67
2023/02/25 12:45:35;;;;;;;1.23;0.83;;;;;16.80;95039.00;;;;5038156;28;20232;-63
2023/02/25 12:48:49;;;;;;;0.93;0.50;;;;;16.60;95066.00;;;;5040148;28;20211;-66
2023/02/25 12:51:59;;;;;;;0.50;0.47;;;;;15.20;95029.00;;;;5035960;28;20208;-70
2023/02/25 12:55:33;;;;;;;2.90;0.30;;;;;16.20;95037.00;;;;5037983;28;20226;-67
2023/02/25 12:58:39;;;;;;;0.60;0.60;;;;;17.60;95038.00;;;;5043605;28;20220;-67
2023/02/25 13:01:38;;;;;;;0.73;0.70;;;;;20.00;95073.00;;;;5041126;28;20294;-67
2023/02/25 13:05:09;;;;;;;0.20;0.20;;;;;16.10;95102.00;;;;5035366;28;20239;-67
2023/02/25 13:08:26;;;;;;;0.20;0.20;;;;;14.50;95033.00;;;;5039132;28;20216;-67
2023/02/25 13:11:21;;;;;;;0.30;0.20;;;;;16.50;95103.00;;;;5040959;28;20200;-65
2023/02/25 13:14:22;;;;;;;0.60;0.20;;;;;14.40;95096.00;;;;5042655;28;20199;-67
2023/02/25 13:17:29;;;;;;;0.37;0.30;;;;;13.90;95107.00;;;;5038572;28;20293;-71
2023/02/25 13:20:46;;;;;;;0.30;0.30;;;;;14.30;95071.00;;;;5039523;28;20279;-71
2023/02/25 13:24:05;;;;;;;0.27;0.27;;;;;14.40;95119.00;;;;5042215;28;20201;-65